Time;durP1;ratioP1;P1;durP2;ratioP2;P2;SDS_P1;SDS_P2;PMS_P1;PMS_P2;Temp;Humidity;BMP_temperature;BMP_pressure;BME280_temperature;BME280_humidity;BME280_pressure;Samples;Min_cycle;Max_cycle;Signal;HPM_P1;HPM_P2
2022/04/12 00:00:40;;;;;;;17.00;2.95;;;11.90;99.90;;;;;;5075364;28;20020;-77
2022/04/12 00:03:07;;;;;;;12.05;2.72;;;11.80;99.90;;;;;;5082816;28;20249;-77
2022/04/12 00:05:33;;;;;;;15.07;2.45;;;11.80;99.90;;;;;;5075691;28;20032;-76
2022/04/12 00:07:59;;;;;;;12.25;2.65;;;11.90;99.90;;;;;;5077936;28;20040;-77
2022/04/12 00:10:26;;;;;;;9.00;2.10;;;11.80;99.90;;;;;;5085355;28;20028;-77
2022/04/12 00:12:52;;;;;;;11.15;3.10;;;11.80;99.90;;;;;;5075753;28;20036;-77
2022/04/12 00:15:17;;;;;;;10.82;2.65;;;11.80;99.90;;;;;;5077294;28;20031;-77
2022/04/12 00:20:38;;;;;;;11.15;2.35;;;11.80;99.90;;;;;;5056585;28;20106;-77
2022/04/12 00:23:05;;;;;;;13.45;2.47;;;11.80;99.90;;;;;;5048868;28;20064;-77
2022/04/12 00:25:31;;;;;;;10.73;3.05;;;11.80;99.90;;;;;;5060378;28;20041;-77
2022/04/12 00:27:58;;;;;;;13.75;2.30;;;11.80;99.90;;;;;;5049275;28;20628;-77
2022/04/12 00:30:26;;;;;;;14.10;3.67;;;11.70;99.90;;;;;;5035517;28;20041;-78
2022/04/12 00:32:52;;;;;;;17.15;2.90;;;11.80;99.90;;;;;;5051822;28;20065;-78
2022/04/12 00:35:19;;;;;;;16.35;3.20;;;11.70;99.90;;;;;;5058172;28;20032;-77
2022/04/12 00:37:45;;;;;;;11.85;2.88;;;11.70;99.90;;;;;;5041188;28;20032;-77
2022/04/12 00:40:12;;;;;;;10.20;2.20;;;11.70;99.90;;;;;;5056269;28;20096;-77
2022/04/12 00:42:38;;;;;;;12.02;2.10;;;11.80;99.90;;;;;;5062383;28;20100;-77
2022/04/12 00:45:04;;;;;;;10.18;2.63;;;11.70;99.90;;;;;;5051647;28;20654;-77
2022/04/12 00:47:30;;;;;;;12.13;2.85;;;11.70;99.90;;;;;;5041258;28;20040;-78
2022/04/12 00:49:56;;;;;;;12.02;3.05;;;11.80;99.90;;;;;;5062272;28;20044;-77
2022/04/12 00:52:22;;;;;;;11.20;2.78;;;11.70;99.90;;;;;;5050481;28;20448;-77
2022/04/12 00:54:49;;;;;;;14.13;2.25;;;11.80;99.90;;;;;;5052345;28;20029;-77
2022/04/12 00:57:16;;;;;;;11.65;2.60;;;11.80;99.90;;;;;;5071967;28;20036;-77
2022/04/12 00:59:45;;;;;;;12.20;3.30;;;11.70;99.90;;;;;;5082042;28;20028;-77
2022/04/12 01:02:10;;;;;;;13.82;2.30;;;11.70;99.90;;;;;;5077307;28;20436;-78
2022/04/12 01:04:36;;;;;;;8.60;1.95;;;11.80;99.90;;;;;;5080906;28;20028;-77
2022/04/12 01:07:03;;;;;;;12.80;2.63;;;11.80;99.90;;;;;;5081719;28;20025;-77
2022/04/12 01:09:29;;;;;;;9.63;2.65;;;11.80;99.90;;;;;;5083725;28;20482;-77
2022/04/12 01:11:56;;;;;;;10.73;2.20;;;11.80;99.90;;;;;;5077021;28;20492;-77
2022/04/12 01:14:26;;;;;;;7.88;2.42;;;11.80;99.90;;;;;;5079997;28;20485;-77
2022/04/12 01:16:52;;;;;;;15.82;3.42;;;11.80;99.90;;;;;;5076205;28;20027;-77
2022/04/12 01:19:18;;;;;;;12.48;2.72;;;11.80;99.90;;;;;;5077515;28;20112;-78
2022/04/12 01:21:55;;;;;;;14.60;3.05;;;11.80;99.90;;;;;;5083606;28;20021;-77
2022/04/12 01:24:21;;;;;;;13.63;3.25;;;11.80;99.90;;;;;;5086451;28;20086;-77
2022/04/12 01:26:47;;;;;;;8.18;1.70;;;11.80;99.90;;;;;;5084002;28;20024;-77
2022/04/12 01:29:13;;;;;;;12.95;2.35;;;11.80;99.90;;;;;;5083403;28;20529;-77
2022/04/12 01:31:39;;;;;;;10.32;1.88;;;11.80;99.90;;;;;;5073081;28;20489;-77
2022/04/12 01:34:04;;;;;;;14.13;2.40;;;11.80;99.90;;;;;;5072119;28;20052;-77
2022/04/12 01:36:30;;;;;;;11.27;2.95;;;11.80;99.90;;;;;;5077291;28;20047;-77
2022/04/12 01:38:57;;;;;;;12.32;2.35;;;11.80;99.90;;;;;;5086358;28;20028;-77
2022/04/12 01:41:22;;;;;;;12.68;2.28;;;11.80;99.90;;;;;;5076356;28;20028;-77
2022/04/12 01:43:48;;;;;;;10.77;2.78;;;11.80;99.90;;;;;;5080478;28;20107;-77
2022/04/12 01:46:14;;;;;;;11.18;2.95;;;11.80;99.90;;;;;;5071238;28;20028;-77
2022/04/12 01:48:39;;;;;;;11.48;2.25;;;11.80;99.90;;;;;;5084791;28;20016;-77
2022/04/12 01:51:05;;;;;;;9.68;2.65;;;11.70;99.90;;;;;;5076909;28;20569;-77
2022/04/12 01:53:31;;;;;;;14.00;3.42;;;11.70;99.90;;;;;;5079571;28;20036;-77
2022/04/12 01:55:56;;;;;;;18.83;3.63;;;11.70;99.90;;;;;;5069823;28;20537;-77
2022/04/12 01:58:22;;;;;;;8.50;2.22;;;11.70;99.90;;;;;;5075611;28;20033;-77
2022/04/12 02:00:48;;;;;;;10.80;2.78;;;11.70;99.90;;;;;;5084734;28;20077;-77
2022/04/12 02:03:14;;;;;;;9.95;2.03;;;11.70;99.90;;;;;;5084958;28;20028;-77
2022/04/12 02:05:39;;;;;;;13.07;2.70;;;11.70;99.90;;;;;;5084804;28;20028;-77
2022/04/12 02:08:07;;;;;;;8.70;2.50;;;11.60;99.90;;;;;;5087344;28;20035;-77
2022/04/12 02:10:33;;;;;;;11.65;2.42;;;11.60;99.90;;;;;;5072927;28;20078;-77
2022/04/12 02:12:58;;;;;;;11.98;2.00;;;11.60;99.90;;;;;;5076736;28;20028;-77
2022/04/12 02:15:24;;;;;;;12.20;2.17;;;11.60;99.90;;;;;;5084992;28;20021;-77
2022/04/12 02:17:50;;;;;;;8.45;1.75;;;11.60;99.90;;;;;;5084105;28;20437;-76
2022/04/12 02:20:16;;;;;;;17.98;3.70;;;11.60;99.90;;;;;;5082984;28;20051;-77
2022/04/12 02:22:41;;;;;;;10.02;2.00;;;11.60;99.90;;;;;;5085059;28;20021;-77
2022/04/12 02:25:08;;;;;;;12.63;2.55;;;11.60;99.90;;;;;;5085674;28;20082;-77
2022/04/12 02:27:34;;;;;;;16.17;2.50;;;11.60;99.90;;;;;;5092886;28;20030;-77
2022/04/12 02:29:59;;;;;;;16.45;3.50;;;11.60;99.90;;;;;;5081593;28;20025;-77
2022/04/12 02:32:25;;;;;;;6.85;2.03;;;11.60;99.90;;;;;;5073834;28;20036;-77
2022/04/12 02:34:51;;;;;;;10.77;2.50;;;11.60;99.90;;;;;;5088490;28;20405;-77
2022/04/12 02:37:16;;;;;;;9.30;2.20;;;11.60;99.90;;;;;;5079693;28;20028;-77
2022/04/12 02:39:42;;;;;;;13.70;2.15;;;11.60;99.90;;;;;;5079185;28;20024;-77
2022/04/12 02:42:08;;;;;;;10.45;2.45;;;11.60;99.90;;;;;;5087349;28;20525;-77
2022/04/12 02:44:34;;;;;;;21.50;2.70;;;11.60;99.90;;;;;;5073382;28;20537;-77
2022/04/12 02:46:59;;;;;;;11.50;2.38;;;11.60;99.90;;;;;;5078116;28;20052;-77
2022/04/12 02:49:25;;;;;;;13.15;2.45;;;11.60;99.90;;;;;;5075932;28;20024;-77
2022/04/12 02:51:51;;;;;;;11.13;2.33;;;11.60;99.90;;;;;;5080480;28;20035;-77
2022/04/12 02:54:17;;;;;;;11.02;3.10;;;11.70;99.90;;;;;;5080006;28;20032;-77
2022/04/12 02:56:43;;;;;;;6.32;2.35;;;11.60;99.90;;;;;;5071987;28;20044;-77
2022/04/12 02:59:08;;;;;;;12.88;3.10;;;11.60;99.90;;;;;;5088638;28;20031;-77
2022/04/12 03:01:34;;;;;;;16.13;3.67;;;11.70;99.90;;;;;;5078933;28;20028;-77
2022/04/12 03:04:00;;;;;;;6.72;2.60;;;11.70;99.90;;;;;;5084940;28;20024;-77
2022/04/12 03:06:26;;;;;;;13.57;2.53;;;11.70;99.90;;;;;;5078399;28;20095;-77
2022/04/12 03:08:52;;;;;;;6.80;2.40;;;11.70;99.90;;;;;;5080767;28;20111;-77
2022/04/12 03:11:18;;;;;;;8.32;2.00;;;11.70;99.90;;;;;;5072483;28;20097;-77
2022/04/12 03:13:43;;;;;;;6.53;2.03;;;11.70;99.90;;;;;;5086585;28;20085;-77
2022/04/12 03:16:09;;;;;;;18.10;2.40;;;11.70;99.90;;;;;;5080411;28;20024;-77
2022/04/12 03:18:35;;;;;;;11.15;3.05;;;11.70;99.90;;;;;;5087407;28;20024;-77
2022/04/12 03:21:00;;;;;;;12.10;2.50;;;11.70;99.90;;;;;;5076530;28;20051;-78
2022/04/12 03:23:26;;;;;;;9.75;1.83;;;11.70;99.90;;;;;;5085520;28;20148;-77
2022/04/12 03:25:52;;;;;;;14.38;2.78;;;11.70;99.90;;;;;;5086903;28;20084;-78
2022/04/12 03:28:17;;;;;;;17.17;2.38;;;11.70;99.90;;;;;;5072722;28;20035;-78
2022/04/12 03:30:44;;;;;;;12.27;2.60;;;11.70;99.90;;;;;;5091802;28;20024;-77
2022/04/12 03:33:09;;;;;;;7.90;2.45;;;11.70;99.90;;;;;;5082786;28;20414;-77
2022/04/12 03:35:35;;;;;;;11.68;2.90;;;11.70;99.90;;;;;;5078339;28;20497;-77
2022/04/12 03:38:01;;;;;;;16.10;3.58;;;11.60;99.90;;;;;;5077956;28;20489;-77
2022/04/12 03:40:31;;;;;;;9.43;1.83;;;11.60;99.90;;;;;;5082407;28;20177;-78
2022/04/12 03:43:05;;;;;;;10.90;2.75;;;11.70;99.90;;;;;;5076802;28;20038;-78
2022/04/12 03:45:32;;;;;;;12.88;2.67;;;11.70;99.90;;;;;;5076097;28;20025;-78
2022/04/12 03:47:59;;;;;;;4.00;1.60;;;11.70;99.90;;;;;;5075094;28;20082;-78
2022/04/12 03:50:25;;;;;;;8.60;2.47;;;11.60;99.90;;;;;;5081681;28;20550;-77
2022/04/12 03:52:52;;;;;;;10.50;2.55;;;11.70;99.90;;;;;;5076214;28;20024;-78
2022/04/12 03:55:30;;;;;;;5.97;1.80;;;11.60;99.90;;;;;;5078883;28;20536;-78
2022/04/12 03:58:04;;;;;;;16.42;3.85;;;11.60;99.90;;;;;;5077689;28;20485;-78
2022/04/12 04:00:30;;;;;;;6.93;1.90;;;11.60;99.90;;;;;;5086774;28;20023;-78
2022/04/12 04:02:56;;;;;;;9.68;2.47;;;11.60;99.90;;;;;;5072155;28;20021;-78
2022/04/12 04:05:22;;;;;;;9.10;2.58;;;11.60;99.90;;;;;;5082415;28;20107;-78
2022/04/12 04:07:48;;;;;;;6.75;2.10;;;11.50;99.90;;;;;;5074843;28;20158;-78
2022/04/12 04:10:14;;;;;;;8.98;2.13;;;11.60;99.90;;;;;;5072648;28;20098;-77
2022/04/12 04:12:40;;;;;;;9.32;2.92;;;11.60;99.90;;;;;;5076400;28;20032;-76
2022/04/12 04:15:11;;;;;;;6.07;2.17;;;11.60;99.90;;;;;;5077890;28;20035;-77
2022/04/12 04:17:41;;;;;;;7.15;1.95;;;11.60;99.90;;;;;;5072429;28;20098;-77
2022/04/12 04:20:07;;;;;;;9.30;2.30;;;11.70;99.90;;;;;;5081666;28;20136;-77
2022/04/12 04:22:33;;;;;;;14.10;3.10;;;11.70;99.90;;;;;;5080134;28;20036;-77
2022/04/12 04:24:58;;;;;;;10.55;3.17;;;11.60;99.90;;;;;;5083318;28;20154;-76
2022/04/12 04:27:28;;;;;;;8.43;2.88;;;11.70;99.90;;;;;;5072776;28;20024;-76
2022/04/12 04:29:55;;;;;;;12.60;2.80;;;11.70;99.90;;;;;;5081566;28;20052;-76
2022/04/12 04:32:22;;;;;;;13.27;2.90;;;11.70;99.90;;;;;;5078038;28;20024;-76
2022/04/12 04:34:48;;;;;;;14.70;3.38;;;11.70;99.90;;;;;;5076064;28;20024;-77
2022/04/12 04:37:13;;;;;;;12.65;2.85;;;11.70;99.90;;;;;;5084997;28;20029;-77
2022/04/12 04:39:39;;;;;;;18.30;2.40;;;11.70;99.90;;;;;;5083233;28;20501;-77
2022/04/12 04:42:05;;;;;;;8.75;2.00;;;11.70;99.90;;;;;;5081062;28;20047;-77
2022/04/12 04:44:31;;;;;;;11.07;2.15;;;11.70;99.90;;;;;;5079190;28;20050;-77
2022/04/12 04:46:57;;;;;;;10.43;2.92;;;11.70;99.90;;;;;;5086882;28;20024;-76
2022/04/12 04:49:23;;;;;;;6.50;2.30;;;11.70;99.90;;;;;;5074925;28;20047;-77
2022/04/12 04:51:49;;;;;;;13.27;2.83;;;11.70;99.90;;;;;;5070817;28;20048;-77
2022/04/12 04:54:15;;;;;;;15.20;2.60;;;11.70;99.90;;;;;;5083955;28;20071;-80
2022/04/12 04:56:40;;;;;;;11.98;3.03;;;11.60;99.90;;;;;;5077802;28;20044;-78
2022/04/12 04:59:06;;;;;;;10.38;3.10;;;11.70;99.90;;;;;;5072948;28;20032;-78
2022/04/12 05:01:32;;;;;;;19.23;3.05;;;11.60;99.90;;;;;;5076595;28;20554;-78
2022/04/12 05:03:58;;;;;;;17.00;3.88;;;11.70;99.90;;;;;;5073395;28;20016;-79
2022/04/12 05:06:23;;;;;;;10.00;2.40;;;11.70;99.90;;;;;;5077917;28;20440;-78
2022/04/12 05:08:49;;;;;;;11.23;2.95;;;11.70;99.90;;;;;;5072175;28;20060;-79
2022/04/12 05:11:15;;;;;;;13.70;3.42;;;11.70;99.90;;;;;;5077675;28;20409;-74
2022/04/12 05:13:40;;;;;;;10.85;2.53;;;11.70;99.90;;;;;;5078358;28;20062;-75
2022/04/12 05:16:06;;;;;;;7.60;2.08;;;11.70;99.90;;;;;;5081488;28;20557;-74
2022/04/12 05:18:32;;;;;;;6.95;1.85;;;11.70;99.90;;;;;;5082940;28;20088;-75
2022/04/12 05:20:57;;;;;;;10.32;2.40;;;11.70;99.90;;;;;;5077610;28;20103;-75
2022/04/12 05:23:23;;;;;;;14.60;2.63;;;11.70;99.90;;;;;;5081859;28;20493;-75
2022/04/12 05:25:53;;;;;;;10.48;2.45;;;11.70;99.90;;;;;;5069158;28;20398;-75
2022/04/12 05:28:19;;;;;;;5.72;2.30;;;11.70;99.90;;;;;;5081761;28;20032;-75
2022/04/12 05:30:45;;;;;;;13.15;2.78;;;11.70;99.90;;;;;;5085395;28;20028;-74
2022/04/12 05:33:12;;;;;;;11.57;3.13;;;11.70;99.90;;;;;;5082780;28;20044;-74
2022/04/12 05:35:38;;;;;;;10.20;2.75;;;11.80;99.90;;;;;;5072652;28;20035;-75
2022/04/12 05:38:05;;;;;;;9.60;2.75;;;11.70;99.90;;;;;;5080934;28;20405;-75
2022/04/12 05:40:32;;;;;;;12.40;3.08;;;11.80;99.90;;;;;;5084954;28;20021;-75
2022/04/12 05:42:58;;;;;;;9.77;1.90;;;11.80;99.90;;;;;;5076810;28;20052;-75
2022/04/12 05:45:24;;;;;;;11.80;2.95;;;11.80;99.90;;;;;;5083393;28;20477;-75
2022/04/12 05:47:51;;;;;;;8.90;3.17;;;11.80;99.90;;;;;;5082632;28;20081;-75
2022/04/12 05:50:19;;;;;;;13.50;2.88;;;11.80;99.90;;;;;;5082153;28;20048;-75
2022/04/12 05:52:44;;;;;;;12.10;2.75;;;11.80;99.90;;;;;;5089200;28;20048;-74
2022/04/12 05:55:15;;;;;;;13.40;2.85;;;11.70;99.90;;;;;;5081932;28;20076;-75
2022/04/12 05:58:01;;;;;;;12.50;3.57;;;11.70;99.90;;;;;;5086786;28;20025;-75
2022/04/12 06:00:29;;;;;;;15.35;2.25;;;11.70;99.90;;;;;;5089811;28;20051;-75
2022/04/12 06:02:55;;;;;;;10.40;2.92;;;11.70;99.90;;;;;;5081529;28;20028;-74
2022/04/12 06:05:23;;;;;;;10.68;2.85;;;11.70;99.90;;;;;;5072430;28;20032;-75
2022/04/12 06:07:49;;;;;;;13.13;3.00;;;11.70;99.90;;;;;;5072796;28;20075;-75
2022/04/12 06:10:17;;;;;;;6.43;2.30;;;11.70;99.90;;;;;;5083997;28;20028;-75
2022/04/12 06:12:44;;;;;;;9.20;2.63;;;11.70;99.90;;;;;;5084951;28;20087;-74
2022/04/12 06:15:10;;;;;;;14.88;2.35;;;11.70;99.90;;;;;;5084373;28;20052;-74
2022/04/12 06:17:36;;;;;;;7.97;2.85;;;11.70;99.90;;;;;;5079151;28;20114;-75
2022/04/12 06:20:16;;;;;;;11.77;3.08;;;11.70;99.90;;;;;;5082508;28;20021;-75
2022/04/12 06:22:43;;;;;;;15.27;3.17;;;11.70;99.90;;;;;;5088440;28;20482;-75
2022/04/12 06:25:11;;;;;;;11.70;2.30;;;11.70;99.90;;;;;;5077426;28;20024;-75
2022/04/12 06:27:39;;;;;;;7.32;2.03;;;11.80;99.90;;;;;;5084218;28;20028;-75
2022/04/12 06:30:16;;;;;;;13.77;2.83;;;11.80;99.90;;;;;;5083162;28;20098;-75
2022/04/12 06:32:43;;;;;;;11.52;3.00;;;11.90;99.90;;;;;;5084736;28;20039;-75
2022/04/12 06:35:10;;;;;;;12.60;2.97;;;11.90;99.90;;;;;;5079182;28;20028;-75
2022/04/12 06:37:36;;;;;;;12.68;2.70;;;12.00;99.90;;;;;;5085095;28;20161;-75
2022/04/12 06:40:05;;;;;;;9.35;2.63;;;12.00;99.90;;;;;;5086386;28;20027;-75
2022/04/12 06:42:31;;;;;;;7.05;2.25;;;12.10;99.90;;;;;;5080560;28;20086;-75
2022/04/12 06:44:56;;;;;;;8.45;2.40;;;12.10;99.90;;;;;;5081053;28;20024;-75
2022/04/12 06:47:22;;;;;;;9.85;2.00;;;12.20;99.90;;;;;;5084053;28;20456;-75
2022/04/12 06:49:50;;;;;;;10.95;2.03;;;12.30;99.90;;;;;;5077160;28;20020;-75
2022/04/12 06:52:18;;;;;;;14.48;2.53;;;12.30;99.90;;;;;;5074308;28;20090;-76
2022/04/12 06:54:44;;;;;;;9.25;2.03;;;12.40;99.90;;;;;;5072156;28;20020;-74
2022/04/12 06:57:10;;;;;;;9.55;3.13;;;12.50;99.90;;;;;;5072643;28;20059;-75
2022/04/12 06:59:36;;;;;;;9.73;2.30;;;12.60;99.90;;;;;;5077935;28;20039;-75
2022/04/12 07:02:02;;;;;;;10.50;2.03;;;12.70;99.90;;;;;;5075655;28;20020;-75
2022/04/12 07:04:29;;;;;;;14.20;2.38;;;12.70;99.90;;;;;;5070758;28;20032;-75
2022/04/12 07:06:56;;;;;;;9.52;2.10;;;12.70;99.90;;;;;;5079761;28;20033;-75
2022/04/12 07:09:23;;;;;;;7.15;2.05;;;12.80;99.90;;;;;;5084056;28;20576;-75
2022/04/12 07:11:49;;;;;;;4.80;1.77;;;12.90;99.90;;;;;;5071709;28;20504;-75
2022/04/12 07:14:15;;;;;;;10.77;2.72;;;13.10;99.90;;;;;;5078460;28;20108;-75
2022/04/12 07:16:41;;;;;;;10.30;2.95;;;13.00;99.90;;;;;;5080691;28;20104;-75
2022/04/12 07:19:07;;;;;;;6.53;2.13;;;13.20;99.90;;;;;;5073209;28;20027;-75
2022/04/12 07:21:33;;;;;;;11.32;2.70;;;13.10;99.90;;;;;;5081237;28;20028;-75
2022/04/12 07:23:59;;;;;;;8.48;2.50;;;13.30;99.90;;;;;;5073713;28;20025;-75
2022/04/12 07:26:27;;;;;;;7.82;2.10;;;13.20;99.90;;;;;;5069999;28;20486;-75
2022/04/12 07:28:53;;;;;;;17.67;3.83;;;13.30;99.90;;;;;;5074322;28;20028;-75
2022/04/12 07:31:19;;;;;;;7.90;2.25;;;13.10;99.90;;;;;;5081156;28;20123;-75
2022/04/12 07:33:45;;;;;;;9.13;2.75;;;13.30;99.90;;;;;;5083672;28;20556;-76
2022/04/12 07:36:11;;;;;;;6.47;2.83;;;13.40;99.90;;;;;;5083726;28;20505;-75
2022/04/12 07:38:37;;;;;;;8.02;2.38;;;13.40;99.90;;;;;;5079190;28;20028;-75
2022/04/12 07:41:04;;;;;;;6.97;2.33;;;13.50;99.90;;;;;;5082160;28;20016;-75
2022/04/12 07:43:30;;;;;;;12.85;2.28;;;13.50;99.90;;;;;;5074410;28;20019;-75
2022/04/12 07:45:56;;;;;;;14.25;3.25;;;13.40;99.90;;;;;;5078231;28;20241;-75
2022/04/12 07:48:22;;;;;;;9.85;1.80;;;13.40;99.90;;;;;;5069644;28;20093;-75
2022/04/12 07:50:48;;;;;;;13.20;2.47;;;13.50;99.90;;;;;;5087673;28;20031;-75
2022/04/12 07:53:14;;;;;;;12.13;2.60;;;13.50;99.90;;;;;;5073925;28;20483;-76
2022/04/12 07:55:39;;;;;;;10.73;2.20;;;13.50;99.90;;;;;;5071212;28;20052;-75
2022/04/12 07:58:05;;;;;;;7.05;2.00;;;13.80;99.90;;;;;;5077318;28;20520;-75
2022/04/12 08:00:31;;;;;;;8.95;2.55;;;13.90;99.90;;;;;;5071812;28;20048;-75
2022/04/12 08:02:57;;;;;;;11.18;2.50;;;13.90;99.90;;;;;;5073690;28;20394;-75
2022/04/12 08:05:23;;;;;;;7.78;2.67;;;13.90;99.90;;;;;;5072884;28;20521;-75
2022/04/12 08:07:49;;;;;;;10.25;3.00;;;14.10;99.90;;;;;;5067577;28;20521;-75
2022/04/12 08:10:19;;;;;;;9.57;2.83;;;14.20;99.90;;;;;;5075154;28;20033;-75
2022/04/12 08:12:46;;;;;;;9.90;2.83;;;14.10;99.90;;;;;;5074762;28;20055;-74
2022/04/12 08:15:15;;;;;;;11.25;2.22;;;14.00;99.90;;;;;;5069950;28;20105;-75
2022/04/12 08:17:41;;;;;;;13.40;2.55;;;14.40;99.90;;;;;;5078189;28;20040;-75
2022/04/12 08:20:13;;;;;;;6.70;2.60;;;14.50;99.90;;;;;;5069810;28;20056;-75
2022/04/12 08:22:39;;;;;;;10.35;2.42;;;15.00;99.90;;;;;;5070778;28;20028;-75
2022/04/12 08:25:06;;;;;;;10.80;2.55;;;15.20;99.90;;;;;;5076677;28;20024;-75
2022/04/12 08:27:32;;;;;;;10.30;2.13;;;15.00;99.90;;;;;;5080361;28;20043;-75
2022/04/12 08:29:59;;;;;;;9.07;2.08;;;14.80;99.90;;;;;;5085177;28;20409;-75
2022/04/12 08:32:25;;;;;;;7.85;2.10;;;14.80;99.90;;;;;;5070127;28;20097;-75
2022/04/12 08:34:50;;;;;;;7.95;1.85;;;14.80;99.90;;;;;;5070619;28;20632;-75
2022/04/12 08:37:17;;;;;;;13.75;2.38;;;14.80;99.90;;;;;;5076857;28;20608;-75
2022/04/12 08:39:42;;;;;;;7.50;2.20;;;14.60;99.90;;;;;;5073805;28;20036;-75
2022/04/12 08:42:08;;;;;;;5.65;1.85;;;14.80;99.90;;;;;;5080512;28;20551;-75
2022/04/12 08:44:37;;;;;;;10.40;2.90;;;14.80;99.90;;;;;;5075675;28;20397;-75
2022/04/12 08:47:07;;;;;;;13.00;2.92;;;15.00;99.90;;;;;;5068649;28;20089;-75
2022/04/12 08:49:35;;;;;;;9.23;2.63;;;15.10;99.90;;;;;;5070307;28;20029;-75
2022/04/12 08:52:02;;;;;;;11.68;1.75;;;15.40;99.90;;;;;;5075154;28;20497;-75
2022/04/12 08:54:28;;;;;;;12.98;3.50;;;15.30;99.90;;;;;;5071461;28;20028;-75
2022/04/12 08:56:54;;;;;;;10.60;2.08;;;15.30;99.90;;;;;;5070619;28;20336;-75
2022/04/12 08:59:20;;;;;;;10.27;2.78;;;15.30;99.90;;;;;;5077884;28;20119;-75
2022/04/12 09:01:50;;;;;;;12.73;2.80;;;15.10;99.90;;;;;;5071496;28;20127;-75
2022/04/12 09:04:15;;;;;;;9.93;2.40;;;15.00;99.90;;;;;;5077460;28;20020;-75
2022/04/12 09:06:52;;;;;;;11.00;2.58;;;15.00;99.90;;;;;;5078830;28;20025;-75
2022/04/12 09:09:20;;;;;;;12.80;2.42;;;15.20;99.90;;;;;;5074565;28;20056;-76
2022/04/12 09:12:03;;;;;;;11.18;2.20;;;15.50;99.90;;;;;;5078348;28;20042;-76
2022/04/12 09:14:48;;;;;;;13.00;3.47;;;15.50;99.90;;;;;;5083938;28;20020;-74
2022/04/12 09:17:18;;;;;;;12.10;2.08;;;15.40;99.90;;;;;;5079960;28;20091;-75
2022/04/12 09:19:46;;;;;;;13.60;2.83;;;15.50;99.90;;;;;;5075663;28;20063;-76
2022/04/12 09:22:16;;;;;;;9.98;2.22;;;15.60;99.90;;;;;;5073475;28;20056;-75
2022/04/12 09:24:54;;;;;;;7.35;1.90;;;15.60;99.90;;;;;;5078650;28;20090;-77
2022/04/12 09:27:22;;;;;;;7.97;2.47;;;16.00;99.90;;;;;;5092309;28;20020;-77
2022/04/12 09:30:00;;;;;;;7.68;1.80;;;16.00;99.90;;;;;;5078098;28;20047;-77
2022/04/12 09:32:28;;;;;;;10.32;2.35;;;16.20;99.90;;;;;;5073763;28;20078;-75
2022/04/12 09:34:55;;;;;;;13.55;2.75;;;16.30;99.90;;;;;;5085412;28;20036;-77
2022/04/12 09:37:22;;;;;;;8.85;2.30;;;16.60;99.90;;;;;;5083865;28;20044;-76
2022/04/12 09:40:00;;;;;;;8.80;2.70;;;16.40;99.60;;;;;;5084959;28;20115;-76
2022/04/12 09:42:42;;;;;;;9.68;2.20;;;16.30;99.90;;;;;;5087332;28;20509;-76
2022/04/12 09:45:10;;;;;;;9.30;2.13;;;16.10;99.50;;;;;;5078581;28;20025;-76
2022/04/12 09:47:37;;;;;;;12.43;3.25;;;15.90;99.70;;;;;;5071982;28;20031;-77
2022/04/12 09:50:03;;;;;;;10.27;2.78;;;16.10;99.60;;;;;;5079209;28;20028;-77
2022/04/12 09:52:29;;;;;;;11.05;2.58;;;16.50;99.30;;;;;;5088016;28;20033;-77
2022/04/12 09:54:58;;;;;;;6.80;2.30;;;16.40;99.20;;;;;;5076412;28;20025;-75
2022/04/12 09:57:25;;;;;;;8.15;2.35;;;16.30;99.80;;;;;;5078025;28;20124;-77
2022/04/12 09:59:55;;;;;;;9.93;2.72;;;16.50;99.00;;;;;;5091329;28;20031;-77
2022/04/12 10:02:23;;;;;;;13.57;2.77;;;16.70;99.90;;;;;;5071254;28;20071;-78
2022/04/12 10:04:54;;;;;;;9.93;2.33;;;16.70;99.70;;;;;;5071906;28;20016;-76
2022/04/12 10:07:22;;;;;;;9.85;2.90;;;16.70;99.20;;;;;;5074637;28;20033;-76
2022/04/12 10:09:50;;;;;;;9.88;2.97;;;17.40;99.90;;;;;;5078716;28;20025;-77
2022/04/12 10:12:17;;;;;;;9.50;2.22;;;17.30;98.60;;;;;;5082254;28;20028;-78
2022/04/12 10:14:43;;;;;;;8.38;2.67;;;17.20;99.50;;;;;;5080951;28;20060;-78
2022/04/12 10:17:10;;;;;;;12.68;2.45;;;17.50;98.50;;;;;;5076542;28;20039;-78
2022/04/12 10:19:38;;;;;;;11.45;2.45;;;17.10;98.90;;;;;;5077952;28;20033;-77
2022/04/12 10:22:04;;;;;;;12.55;3.40;;;17.40;98.80;;;;;;5083569;28;20023;-77
2022/04/12 10:24:31;;;;;;;16.35;3.47;;;17.70;98.60;;;;;;5072513;28;20048;-78
2022/04/12 10:26:57;;;;;;;8.20;2.75;;;17.60;98.20;;;;;;5082646;28;20017;-78
2022/04/12 10:29:23;;;;;;;8.80;2.40;;;17.30;98.50;;;;;;5087056;28;20078;-78
2022/04/12 10:31:56;;;;;;;12.30;3.75;;;17.10;99.00;;;;;;5073306;28;20517;-78
2022/04/12 10:34:22;;;;;;;11.02;3.10;;;17.60;98.80;;;;;;5077009;28;20028;-78
2022/04/12 10:37:08;;;;;;;10.25;2.30;;;17.60;98.00;;;;;;5070119;28;20020;-77
2022/04/12 10:39:35;;;;;;;7.68;2.20;;;17.50;99.00;;;;;;5086889;28;20094;-78
2022/04/12 10:42:08;;;;;;;10.68;2.28;;;17.80;99.10;;;;;;5073118;28;20056;-78
2022/04/12 10:44:40;;;;;;;8.45;2.67;;;17.80;98.50;;;;;;5078474;28;20021;-77
2022/04/12 10:47:06;;;;;;;10.23;2.55;;;17.50;98.40;;;;;;5075573;28;20162;-78
2022/04/12 10:49:38;;;;;;;10.82;2.90;;;17.20;98.60;;;;;;5075322;28;20116;-77
2022/04/12 10:52:08;;;;;;;6.80;2.78;;;17.60;98.60;;;;;;5084665;28;20028;-77
2022/04/12 10:54:35;;;;;;;10.93;2.80;;;17.80;97.80;;;;;;5080408;28;20078;-76
2022/04/12 10:57:20;;;;;;;13.25;2.85;;;17.80;98.50;;;;;;5082554;28;20044;-77
2022/04/12 10:59:54;;;;;;;12.00;2.42;;;17.60;98.70;;;;;;5074914;28;20044;-77
2022/04/12 11:02:20;;;;;;;9.52;3.28;;;17.50;98.30;;;;;;5074090;28;20016;-77
2022/04/12 11:04:46;;;;;;;9.07;2.58;;;17.40;98.70;;;;;;5075162;28;20029;-78
2022/04/12 11:07:31;;;;;;;10.85;2.85;;;17.40;99.10;;;;;;5073364;28;20569;-77
2022/04/12 11:10:07;;;;;;;10.40;3.30;;;17.50;98.50;;;;;;5070486;28;20032;-77
2022/04/12 11:12:47;;;;;;;9.88;3.10;;;17.30;98.50;;;;;;5078447;28;20028;-77
2022/04/12 11:15:24;;;;;;;9.88;2.35;;;17.50;98.80;;;;;;5071984;28;20037;-76
2022/04/12 11:18:16;;;;;;;13.80;3.97;;;17.40;98.70;;;;;;5078855;28;20055;-77
2022/04/12 11:20:48;;;;;;;9.80;2.67;;;17.20;98.60;;;;;;5073191;28;20029;-76
2022/04/12 11:23:15;;;;;;;14.05;3.15;;;17.50;98.30;;;;;;5077938;28;20051;-77
2022/04/12 11:25:50;;;;;;;11.15;3.08;;;17.70;98.60;;;;;;5079465;28;20024;-76
2022/04/12 11:28:24;;;;;;;11.95;2.35;;;17.70;98.20;;;;;;5073443;28;20111;-77
2022/04/12 11:30:58;;;;;;;10.75;3.15;;;17.80;97.70;;;;;;5075096;28;20457;-77
2022/04/12 11:33:25;;;;;;;13.23;2.70;;;17.90;98.70;;;;;;5078995;28;20040;-77
2022/04/12 11:35:52;;;;;;;7.95;2.28;;;18.10;98.30;;;;;;5079847;28;20028;-77
2022/04/12 11:38:20;;;;;;;10.88;2.40;;;18.30;97.70;;;;;;5077062;28;20244;-77
2022/04/12 11:40:45;;;;;;;12.80;3.22;;;18.40;97.60;;;;;;5070437;28;20024;-77
2022/04/12 11:43:22;;;;;;;5.43;1.80;;;18.40;97.50;;;;;;5071319;28;20029;-78
2022/04/12 11:45:57;;;;;;;9.40;2.45;;;18.40;97.60;;;;;;5075733;28;20134;-77
2022/04/12 11:48:29;;;;;;;11.77;2.90;;;18.30;97.40;;;;;;5076394;28;20039;-77
2022/04/12 11:50:57;;;;;;;10.07;2.67;;;18.30;97.80;;;;;;5082060;28;20039;-76
2022/04/12 11:53:25;;;;;;;7.15;2.45;;;18.20;97.10;;;;;;5075931;28;20043;-77
2022/04/12 11:56:00;;;;;;;11.18;2.85;;;18.50;97.80;;;;;;5104734;27;20496;-76
2022/04/12 11:58:28;;;;;;;7.60;2.15;;;18.80;97.60;;;;;;5096453;28;20023;-76
2022/04/12 12:00:54;;;;;;;12.00;3.17;;;18.60;96.60;;;;;;5099345;28;20111;-77
2022/04/12 12:03:19;;;;;;;10.98;2.40;;;18.50;97.30;;;;;;5104794;28;20034;-77
2022/04/12 12:05:45;;;;;;;14.77;2.80;;;18.60;97.10;;;;;;5089982;28;20405;-77
2022/04/12 12:08:12;;;;;;;7.30;2.65;;;18.30;97.80;;;;;;5092761;28;20601;-77
2022/04/12 12:10:38;;;;;;;10.93;2.97;;;18.00;97.90;;;;;;5091712;28;20020;-76
2022/04/12 12:13:07;;;;;;;9.15;2.50;;;17.80;97.40;;;;;;5093696;28;20046;-77
2022/04/12 12:15:33;;;;;;;12.63;3.08;;;17.60;98.10;;;;;;5094293;28;20032;-76
2022/04/12 12:18:01;;;;;;;12.38;3.25;;;17.20;97.90;;;;;;5097443;28;20044;-77
2022/04/12 12:20:31;;;;;;;8.10;2.83;;;17.00;99.00;;;;;;5092640;28;20023;-76
2022/04/12 12:23:02;;;;;;;11.13;2.72;;;16.90;98.50;;;;;;5084405;28;20040;-77
2022/04/12 12:25:41;;;;;;;;;;;16.90;98.50;;;;;;5087643;28;20070;-77
2022/04/12 12:28:11;;;;;;;10.18;2.72;;;16.90;99.30;;;;;;5094522;28;19905;-77
2022/04/12 12:30:37;;;;;;;9.40;2.70;;;17.00;99.00;;;;;;5103721;28;20036;-76
2022/04/12 12:33:03;;;;;;;9.60;2.70;;;17.10;99.20;;;;;;5090245;28;20516;-76
2022/04/12 12:35:30;;;;;;;14.00;3.55;;;17.40;98.40;;;;;;5090210;28;20524;-76
2022/04/12 12:38:27;;;;;;;12.38;2.85;;;17.70;98.30;;;;;;5093100;28;20024;-77
2022/04/12 12:40:56;;;;;;;9.73;2.70;;;17.90;97.80;;;;;;5089377;28;20133;-76
2022/04/12 12:43:21;;;;;;;18.08;3.38;;;17.50;97.80;;;;;;5095050;28;20020;-77
2022/04/12 12:45:47;;;;;;;10.27;2.85;;;17.20;98.80;;;;;;5091085;28;20517;-77